logo tempoitalia

Diretta Meteo Abu Dhabi, Emirati Arabi Unitilunedì 31 agosto ore 09:30

Mappa
Sereno 37 °C Sereno 24 Ore: T.min 30 T.max 46
Ponente Sud/Sud-Est Km/h 16.7 Punto di rugiada: 13 °C Umidità: 23% Visibilità: 10 Km
Il sole sorge alle: 06:02 Il sole tramonta alle: 18:41
31 Agosto 2026 09:30 tempo osservato: Sereno Sereno 37 23 1002 vento: Nord S/SE 16.7
31 Agosto 2026 09:00 tempo osservato: Sereno Sereno 36 25 1002 vento: Nord S/SE 18.5
31 Agosto 2026 08:30 tempo osservato: Sereno Sereno 35 26 1002 vento: Nord SE 22.2
31 Agosto 2026 08:00 tempo osservato: Sereno Sereno 34 28 1002 vento: Nord S/SE 18.5
31 Agosto 2026 07:30 tempo osservato: Sereno Sereno 33 31 1002 vento: Nord S/SE 13
31 Agosto 2026 07:00 tempo osservato: Sereno Sereno 31 48 1001 vento: Nord SE 14.8
31 Agosto 2026 06:30 tempo osservato: Sereno Sereno 30 55 1001 vento: Nord E/SE 14.8
31 Agosto 2026 06:00 tempo osservato: Sereno Sereno 30 62 1001 vento: Nord E/SE 7.4
31 Agosto 2026 05:30 tempo osservato: Sereno Sereno 31 58 1001 vento: Nord N 5.5
31 Agosto 2026 05:00 tempo osservato: Sereno Sereno 32 52 1001 vento: Nord N 3.7
31 Agosto 2026 04:30 tempo osservato: Sereno Sereno 32 55 1001 vento: Nord N 5.5
31 Agosto 2026 04:00 tempo osservato: Sereno Sereno 32 55 1001 vento: Nord N 0
31 Agosto 2026 03:30 tempo osservato: Sereno Sereno 33 55 1001 vento: Nord N 5.5
31 Agosto 2026 03:00 tempo osservato: Sereno Sereno 32 62 1001 vento: Nord E 9.3
31 Agosto 2026 02:30 tempo osservato: Sereno Sereno 32 66 1001 vento: Nord E/NE 7.4
31 Agosto 2026 02:00 tempo osservato: Sereno Sereno 33 62 1001 vento: Nord NE 7.4
31 Agosto 2026 01:30 tempo osservato: Sereno Sereno 33 66 1001 vento: Nord N 5.5
31 Agosto 2026 01:00 tempo osservato: Sereno Sereno 33 66 1000 vento: Nord N 5.5
31 Agosto 2026 00:30 tempo osservato: Sereno Sereno 34 63 1001 vento: Nord E 7.4
31 Agosto 2026 00:00 tempo osservato: Sereno Sereno 33 66 1001 vento: Nord E/SE 7.4
30 Agosto 2026 23:30 tempo osservato: Sereno Sereno 34 63 1001 vento: Nord E 9.3
30 Agosto 2026 23:00 tempo osservato: Sereno Sereno 34 67 1001 vento: Nord E/NE 13
30 Agosto 2026 22:30 tempo osservato: Sereno Sereno 34 63 1001 vento: Nord E/NE 11.1
30 Agosto 2026 22:00 tempo osservato: Sereno Sereno 35 59 1001 vento: Nord NE 11.1
30 Agosto 2026 21:30 tempo osservato: Sereno Sereno 35 59 1001 vento: Nord N 14.8
30 Agosto 2026 21:00 tempo osservato: Sereno Sereno 36 56 1000 vento: Nord N 11.1
30 Agosto 2026 20:30 tempo osservato: Sereno Sereno 36 56 1000 vento: Nord N/NO 16.7
30 Agosto 2026 20:00 tempo osservato: Sereno Sereno 36 56 1000 vento: Nord N 18.5
30 Agosto 2026 19:30 tempo osservato: Sereno Sereno 37 47 999 vento: Nord N/NO 18.5
30 Agosto 2026 19:00 tempo osservato: Sereno Sereno 38 39 999 vento: Nord N/NO 20.3
30 Agosto 2026 18:30 tempo osservato: Sereno Sereno 40 33 999 vento: Nord N/NO 18.5
30 Agosto 2026 18:00 tempo osservato: Sereno Sereno 41 30 999 vento: Nord NO 18.5
30 Agosto 2026 17:30 tempo osservato: Sereno Sereno 42 22 999 vento: Nord NO 22.2
30 Agosto 2026 17:00 tempo osservato: Sereno Sereno 43 19 999 vento: Nord NO 24
30 Agosto 2026 16:30 tempo osservato: Sereno Sereno 45 15 999 vento: Nord NO 22.2
30 Agosto 2026 16:00 tempo osservato: Sereno Sereno 45 13 999 vento: Nord O/NO 22.2
30 Agosto 2026 15:30 tempo osservato: Sereno Sereno 46 10 999 vento: Nord O 22.2
30 Agosto 2026 15:00 tempo osservato: Sereno Sereno 46 11 999 vento: Nord O 18.5
30 Agosto 2026 14:30 tempo osservato: Sereno Sereno 46 11 999 vento: Nord O/SO 18.5
30 Agosto 2026 14:00 tempo osservato: Sereno Sereno 45 12 1000 vento: Nord S/SO 20.3
30 Agosto 2026 13:30 tempo osservato: Sereno Sereno 45 13 1000 vento: Nord SO 20.3
30 Agosto 2026 13:00 tempo osservato: Sereno Sereno 44 14 1001 vento: Nord S/SO 20.3
30 Agosto 2026 12:30 tempo osservato: Sereno Sereno 43 16 1001 vento: Nord S/SO 22.2
30 Agosto 2026 12:00 tempo osservato: Sereno Sereno 43 16 1002 vento: Nord S/SO 22.2
30 Agosto 2026 11:30 tempo osservato: Sereno Sereno 42 19 1002 vento: Nord S 25.9
30 Agosto 2026 11:00 tempo osservato: Sereno Sereno 41 20 1002 vento: Nord S 24
30 Agosto 2026 10:30 tempo osservato: Sereno Sereno 39 37 1002 vento: Nord S 22.2
30 Agosto 2026 10:00 tempo osservato: Sereno Sereno 38 27 1002 vento: Nord S 20.3